sensor_id;sensor_type;location;lat;lon;timestamp;pressure;altitude;pressure_sealevel;temperature;humidity
56671;BME280;42545;50.054;8.306;2023-01-25T00:01:57;101885.19;;;0.76;100.00
56671;BME280;42545;50.054;8.306;2023-01-25T00:04:24;101888.66;;;0.76;100.00
56671;BME280;42545;50.054;8.306;2023-01-25T00:06:53;101885.19;;;0.76;100.00
56671;BME280;42545;50.054;8.306;2023-01-25T00:09:23;101876.47;;;0.75;100.00
56671;BME280;42545;50.054;8.306;2023-01-25T00:11:54;101875.59;;;0.75;100.00
56671;BME280;42545;50.054;8.306;2023-01-25T00:14:22;101872.19;;;0.76;100.00
56671;BME280;42545;50.054;8.306;2023-01-25T00:16:50;101873.75;;;0.74;100.00
56671;BME280;42545;50.054;8.306;2023-01-25T00:19:19;101867.78;;;0.75;100.00
56671;BME280;42545;50.054;8.306;2023-01-25T00:21:46;101866.97;;;0.76;100.00
56671;BME280;42545;50.054;8.306;2023-01-25T00:24:14;101865.28;;;0.76;100.00
56671;BME280;42545;50.054;8.306;2023-01-25T00:26:41;101868.69;;;0.75;100.00
56671;BME280;42545;50.054;8.306;2023-01-25T00:29:10;101866.97;;;0.76;100.00
56671;BME280;42545;50.054;8.306;2023-01-25T00:34:59;101860.88;;;0.75;100.00
56671;BME280;42545;50.054;8.306;2023-01-25T00:37:29;101852.97;;;0.74;100.00
56671;BME280;42545;50.054;8.306;2023-01-25T00:40:04;101852.81;;;0.72;100.00
56671;BME280;42545;50.054;8.306;2023-01-25T00:42:31;101857.13;;;0.72;100.00
56671;BME280;42545;50.054;8.306;2023-01-25T00:44:58;101864.25;;;0.74;100.00
56671;BME280;42545;50.054;8.306;2023-01-25T00:47:24;101847.75;;;0.74;100.00
56671;BME280;42545;50.054;8.306;2023-01-25T00:49:52;101862.59;;;0.75;100.00
56671;BME280;42545;50.054;8.306;2023-01-25T00:58:54;101849.47;;;0.73;100.00
56671;BME280;42545;50.054;8.306;2023-01-25T01:01:21;101843.34;;;0.73;100.00
56671;BME280;42545;50.054;8.306;2023-01-25T01:03:50;101845.81;;;0.71;100.00
56671;BME280;42545;50.054;8.306;2023-01-25T01:09:38;101846.59;;;0.70;100.00
56671;BME280;42545;50.054;8.306;2023-01-25T01:12:06;101851.66;;;0.69;100.00
56671;BME280;42545;50.054;8.306;2023-01-25T01:14:33;101850.88;;;0.70;100.00
56671;BME280;42545;50.054;8.306;2023-01-25T01:17:00;101849.97;;;0.69;100.00
56671;BME280;42545;50.054;8.306;2023-01-25T01:19:26;101846.47;;;0.69;100.00
56671;BME280;42545;50.054;8.306;2023-01-25T01:21:53;101845.28;;;0.65;100.00
56671;BME280;42545;50.054;8.306;2023-01-25T01:24:20;101859.44;;;0.69;100.00
56671;BME280;42545;50.054;8.306;2023-01-25T01:26:46;101848.16;;;0.68;100.00
56671;BME280;42545;50.054;8.306;2023-01-25T01:29:18;101849.72;;;0.66;100.00
56671;BME280;42545;50.054;8.306;2023-01-25T01:31:45;101854.13;;;0.67;100.00
56671;BME280;42545;50.054;8.306;2023-01-25T01:34:13;101846.22;;;0.66;100.00
56671;BME280;42545;50.054;8.306;2023-01-25T01:36:40;101843.63;;;0.66;100.00
56671;BME280;42545;50.054;8.306;2023-01-25T01:39:06;101836.31;;;0.62;100.00
56671;BME280;42545;50.054;8.306;2023-01-25T01:41:34;101842.44;;;0.62;100.00
56671;BME280;42545;50.054;8.306;2023-01-25T01:44:01;101840.75;;;0.63;100.00
56671;BME280;42545;50.054;8.306;2023-01-25T01:46:32;101843.34;;;0.63;100.00
56671;BME280;42545;50.054;8.306;2023-01-25T01:49:04;101843.34;;;0.63;100.00
56671;BME280;42545;50.054;8.306;2023-01-25T01:51:35;101838.03;;;0.61;100.00
56671;BME280;42545;50.054;8.306;2023-01-25T01:54:09;101828.16;;;0.57;100.00
56671;BME280;42545;50.054;8.306;2023-01-25T01:56:41;101836.19;;;0.60;100.00
56671;BME280;42545;50.054;8.306;2023-01-25T01:59:10;101832.69;;;0.60;100.00
56671;BME280;42545;50.054;8.306;2023-01-25T02:01:39;101822.69;;;0.54;100.00
56671;BME280;42545;50.054;8.306;2023-01-25T02:04:07;101831.78;;;0.59;100.00
56671;BME280;42545;50.054;8.306;2023-01-25T02:06:41;101817.63;;;0.55;100.00
56671;BME280;42545;50.054;8.306;2023-01-25T02:09:10;101811.78;;;0.58;100.00
56671;BME280;42545;50.054;8.306;2023-01-25T02:11:38;101818.81;;;0.59;100.00
56671;BME280;42545;50.054;8.306;2023-01-25T02:14:05;101823.09;;;0.59;100.00
56671;BME280;42545;50.054;8.306;2023-01-25T02:16:32;101819.56;;;0.58;100.00
56671;BME280;42545;50.054;8.306;2023-01-25T02:19:01;101829.06;;;0.57;100.00
56671;BME280;42545;50.054;8.306;2023-01-25T02:21:36;101823.88;;;0.57;100.00
56671;BME280;42545;50.054;8.306;2023-01-25T02:24:08;101822.03;;;0.56;100.00
56671;BME280;42545;50.054;8.306;2023-01-25T02:26:39;101823.72;;;0.56;100.00
56671;BME280;42545;50.054;8.306;2023-01-25T02:29:07;101824.63;;;0.56;100.00
56671;BME280;42545;50.054;8.306;2023-01-25T02:31:34;101826.31;;;0.56;100.00
56671;BME280;42545;50.054;8.306;2023-01-25T02:34:04;101808.25;;;0.47;100.00
56671;BME280;42545;50.054;8.306;2023-01-25T02:36:32;101823.47;;;0.53;100.00
56671;BME280;42545;50.054;8.306;2023-01-25T02:39:05;101815.56;;;0.51;100.00
56671;BME280;42545;50.054;8.306;2023-01-25T02:41:34;101825.94;;;0.51;100.00
56671;BME280;42545;50.054;8.306;2023-01-25T02:44:07;101818.94;;;0.50;100.00
56671;BME280;42545;50.054;8.306;2023-01-25T02:46:37;101810.09;;;0.48;100.00
56671;BME280;42545;50.054;8.306;2023-01-25T02:49:06;101803.88;;;0.46;100.00
56671;BME280;42545;50.054;8.306;2023-01-25T02:51:35;101808.25;;;0.47;100.00
56671;BME280;42545;50.054;8.306;2023-01-25T02:54:04;101803.72;;;0.45;100.00
56671;BME280;42545;50.054;8.306;2023-01-25T02:56:32;101818.56;;;0.46;100.00
56671;BME280;42545;50.054;8.306;2023-01-25T02:58:59;101818.41;;;0.44;100.00
56671;BME280;42545;50.054;8.306;2023-01-25T03:01:31;101821.91;;;0.45;100.00
56671;BME280;42545;50.054;8.306;2023-01-25T03:03:57;101811.53;;;0.45;100.00
56671;BME280;42545;50.054;8.306;2023-01-25T03:06:24;101809.81;;;0.45;100.00
56671;BME280;42545;50.054;8.306;2023-01-25T03:08:51;101804.50;;;0.44;100.00
56671;BME280;42545;50.054;8.306;2023-01-25T03:11:18;101795.44;;;0.38;100.00
56671;BME280;42545;50.054;8.306;2023-01-25T03:13:44;101809.69;;;0.44;100.00
56671;BME280;42545;50.054;8.306;2023-01-25T03:16:13;101807.00;;;0.42;100.00
56671;BME280;42545;50.054;8.306;2023-01-25T03:18:41;101808.66;;;0.42;100.00
56671;BME280;42545;50.054;8.306;2023-01-25T03:21:11;101797.38;;;0.41;100.00
56671;BME280;42545;50.054;8.306;2023-01-25T03:23:39;101799.06;;;0.41;100.00
56671;BME280;42545;50.054;8.306;2023-01-25T03:26:08;101792.84;;;0.38;100.00
56671;BME280;42545;50.054;8.306;2023-01-25T03:28:38;101790.25;;;0.38;100.00
56671;BME280;42545;50.054;8.306;2023-01-25T03:31:05;101792.69;;;0.37;100.00
56671;BME280;42545;50.054;8.306;2023-01-25T03:33:32;101795.44;;;0.38;100.00
56671;BME280;42545;50.054;8.306;2023-01-25T03:36:01;101789.97;;;0.35;100.00
56671;BME280;42545;50.054;8.306;2023-01-25T03:38:27;101787.38;;;0.35;100.00
56671;BME280;42545;50.054;8.306;2023-01-25T03:40:54;101784.78;;;0.35;100.00
56671;BME280;42545;50.054;8.306;2023-01-25T03:43:23;101785.69;;;0.36;100.00
56671;BME280;42545;50.054;8.306;2023-01-25T03:45:54;101786.47;;;0.35;100.00
56671;BME280;42545;50.054;8.306;2023-01-25T03:48:21;101784.78;;;0.35;100.00
56671;BME280;42545;50.054;8.306;2023-01-25T03:50:49;101783.75;;;0.33;100.00
56671;BME280;42545;50.054;8.306;2023-01-25T03:53:18;101781.16;;;0.33;100.00
56671;BME280;42545;50.054;8.306;2023-01-25T03:55:52;101770.22;;;0.27;100.00
56671;BME280;42545;50.054;8.306;2023-01-25T03:58:20;101777.38;;;0.30;100.00
56671;BME280;42545;50.054;8.306;2023-01-25T04:00:46;101756.47;;;0.18;100.00
56671;BME280;42545;50.054;8.306;2023-01-25T04:03:13;101774.25;;;0.24;100.00
56671;BME280;42545;50.054;8.306;2023-01-25T04:05:40;101772.81;;;0.27;100.00
56671;BME280;42545;50.054;8.306;2023-01-25T04:08:08;101766.59;;;0.25;100.00
56671;BME280;42545;50.054;8.306;2023-01-25T04:10:36;101776.34;;;0.28;100.00
56671;BME280;42545;50.054;8.306;2023-01-25T04:13:03;101773.75;;;0.28;100.00
56671;BME280;42545;50.054;8.306;2023-01-25T04:15:30;101785.03;;;0.28;100.00
56671;BME280;42545;50.054;8.306;2023-01-25T04:17:57;101778.66;;;0.25;100.00
56671;BME280;42545;50.054;8.306;2023-01-25T04:20:24;101769.19;;;0.25;100.00
56671;BME280;42545;50.054;8.306;2023-01-25T04:22:50;101764.50;;;0.21;100.00
56671;BME280;42545;50.054;8.306;2023-01-25T04:25:17;101769.31;;;0.27;100.00
56671;BME280;42545;50.054;8.306;2023-01-25T04:27:45;101761.53;;;0.27;100.00
56671;BME280;42545;50.054;8.306;2023-01-25T04:30:12;101764.25;;;0.28;100.00
56671;BME280;42545;50.054;8.306;2023-01-25T04:32:39;101766.09;;;0.29;100.00
56671;BME280;42545;50.054;8.306;2023-01-25T04:35:06;101765.81;;;0.26;100.00
56671;BME280;42545;50.054;8.306;2023-01-25T04:37:33;101760.63;;;0.26;100.00
56671;BME280;42545;50.054;8.306;2023-01-25T04:40:00;101757.91;;;0.25;100.00
56671;BME280;42545;50.054;8.306;2023-01-25T04:42:28;101762.19;;;0.24;100.00
56671;BME280;42545;50.054;8.306;2023-01-25T04:45:01;101753.38;;;0.22;100.00
56671;BME280;42545;50.054;8.306;2023-01-25T04:47:28;101759.47;;;0.23;100.00
56671;BME280;42545;50.054;8.306;2023-01-25T04:49:54;101742.56;;;0.17;100.00
56671;BME280;42545;50.054;8.306;2023-01-25T04:52:23;101748.03;;;0.21;100.00
56671;BME280;42545;50.054;8.306;2023-01-25T04:54:49;101747.09;;;0.20;100.00
56671;BME280;42545;50.054;8.306;2023-01-25T04:57:16;101745.31;;;0.19;100.00
56671;BME280;42545;50.054;8.306;2023-01-25T04:59:42;101740.88;;;0.18;100.00
56671;BME280;42545;50.054;8.306;2023-01-25T05:02:10;101723.50;;;0.17;100.00
56671;BME280;42545;50.054;8.306;2023-01-25T05:04:37;101729.88;;;0.21;100.00
56671;BME280;42545;50.054;8.306;2023-01-25T05:07:04;101726.25;;;0.18;100.00
56671;BME280;42545;50.054;8.306;2023-01-25T05:09:32;101731.53;;;0.20;100.00
56671;BME280;42545;50.054;8.306;2023-01-25T05:11:59;101736.72;;;0.20;100.00
56671;BME280;42545;50.054;8.306;2023-01-25T05:14:25;101727.13;;;0.19;100.00
56671;BME280;42545;50.054;8.306;2023-01-25T05:16:52;101726.34;;;0.20;100.00
56671;BME280;42545;50.054;8.306;2023-01-25T05:19:23;101722.72;;;0.18;100.00
56671;BME280;42545;50.054;8.306;2023-01-25T05:21:52;101724.69;;;0.21;100.00
56671;BME280;42545;50.054;8.306;2023-01-25T05:24:25;101721.03;;;0.18;100.00
56671;BME280;42545;50.054;8.306;2023-01-25T05:26:56;101722.72;;;0.18;100.00
56671;BME280;42545;50.054;8.306;2023-01-25T05:29:28;101722.59;;;0.16;100.00
56671;BME280;42545;50.054;8.306;2023-01-25T05:31:56;101704.94;;;0.12;100.00
56671;BME280;42545;50.054;8.306;2023-01-25T05:34:24;101712.22;;;0.16;100.00
56671;BME280;42545;50.054;8.306;2023-01-25T05:36:51;101709.63;;;0.16;100.00
56671;BME280;42545;50.054;8.306;2023-01-25T05:39:18;101709.63;;;0.16;100.00
56671;BME280;42545;50.054;8.306;2023-01-25T05:41:45;101707.66;;;0.14;100.00
56671;BME280;42545;50.054;8.306;2023-01-25T05:44:14;101706.50;;;0.10;100.00
56671;BME280;42545;50.054;8.306;2023-01-25T05:46:41;101708.19;;;0.10;100.00
56671;BME280;42545;50.054;8.306;2023-01-25T05:49:08;101706.50;;;0.10;100.00
56671;BME280;42545;50.054;8.306;2023-01-25T05:51:38;101703.91;;;0.10;100.00
56671;BME280;42545;50.054;8.306;2023-01-25T05:54:05;101710.78;;;0.10;100.00
56671;BME280;42545;50.054;8.306;2023-01-25T05:56:33;101708.97;;;0.09;100.00
56671;BME280;42545;50.054;8.306;2023-01-25T05:59:00;101694.66;;;0.04;100.00
56671;BME280;42545;50.054;8.306;2023-01-25T06:01:27;101697.53;;;0.07;100.00
56671;BME280;42545;50.054;8.306;2023-01-25T06:03:54;101694.03;;;0.06;100.00
56671;BME280;42545;50.054;8.306;2023-01-25T06:06:21;101700.94;;;0.06;100.00
56671;BME280;42545;50.054;8.306;2023-01-25T06:08:49;101705.19;;;0.05;100.00
56671;BME280;42545;50.054;8.306;2023-01-25T06:11:18;101697.28;;;0.04;100.00
56671;BME280;42545;50.054;8.306;2023-01-25T06:13:45;101697.94;;;0.01;100.00
56671;BME280;42545;50.054;8.306;2023-01-25T06:16:12;101697.94;;;0.01;100.00
56671;BME280;42545;50.054;8.306;2023-01-25T06:18:39;101696.13;;;0.00;100.00
56671;BME280;42545;50.054;8.306;2023-01-25T06:21:06;101700.25;;;-0.02;100.00
56671;BME280;42545;50.054;8.306;2023-01-25T06:23:32;101692.38;;;-0.04;100.00
56671;BME280;42545;50.054;8.306;2023-01-25T06:26:03;101694.81;;;-0.05;100.00
56671;BME280;42545;50.054;8.306;2023-01-25T06:28:29;101699.22;;;-0.04;100.00
56671;BME280;42545;50.054;8.306;2023-01-25T06:31:02;101697.56;;;-0.04;100.00
56671;BME280;42545;50.054;8.306;2023-01-25T06:33:29;101702.75;;;-0.04;100.00
56671;BME280;42545;50.054;8.306;2023-01-25T06:35:58;101693.91;;;-0.06;100.00
56671;BME280;42545;50.054;8.306;2023-01-25T06:38:25;101694.69;;;-0.07;100.00
56671;BME280;42545;50.054;8.306;2023-01-25T06:40:58;101699.22;;;-0.04;100.00
56671;BME280;42545;50.054;8.306;2023-01-25T06:43:29;101692.22;;;-0.05;100.00
56671;BME280;42545;50.054;8.306;2023-01-25T06:45:58;101690.53;;;-0.05;100.00
56671;BME280;42545;50.054;8.306;2023-01-25T06:48:26;101700.78;;;-0.06;100.00
56671;BME280;42545;50.054;8.306;2023-01-25T06:50:56;101707.66;;;-0.07;100.00
56671;BME280;42545;50.054;8.306;2023-01-25T06:53:25;101703.38;;;-0.06;100.00
56671;BME280;42545;50.054;8.306;2023-01-25T06:55:57;101705.06;;;-0.07;100.00
56671;BME280;42545;50.054;8.306;2023-01-25T06:58:24;101705.06;;;-0.07;100.00
56671;BME280;42545;50.054;8.306;2023-01-25T07:00:53;101702.34;;;-0.08;100.00
56671;BME280;42545;50.054;8.306;2023-01-25T07:03:19;101690.13;;;-0.09;100.00
56671;BME280;42545;50.054;8.306;2023-01-25T07:05:49;101697.91;;;-0.09;100.00
56671;BME280;42545;50.054;8.306;2023-01-25T07:08:16;101701.44;;;-0.09;100.00
56671;BME280;42545;50.054;8.306;2023-01-25T07:10:52;101698.56;;;-0.12;100.00
56671;BME280;42545;50.054;8.306;2023-01-25T07:13:18;101702.19;;;-0.10;100.00
56671;BME280;42545;50.054;8.306;2023-01-25T07:15:53;101695.22;;;-0.11;100.00
56671;BME280;42545;50.054;8.306;2023-01-25T07:18:22;101698.56;;;-0.12;100.00
56671;BME280;42545;50.054;8.306;2023-01-25T07:20:51;101696.13;;;-0.10;100.00
56671;BME280;42545;50.054;8.306;2023-01-25T07:23:18;101706.50;;;-0.10;100.00
56671;BME280;42545;50.054;8.306;2023-01-25T07:25:45;101704.78;;;-0.10;100.00
56671;BME280;42545;50.054;8.306;2023-01-25T07:28:13;101695.22;;;-0.11;100.00
56671;BME280;42545;50.054;8.306;2023-01-25T07:30:41;101706.63;;;-0.09;100.00
56671;BME280;42545;50.054;8.306;2023-01-25T07:33:10;101701.31;;;-0.10;100.00
56671;BME280;42545;50.054;8.306;2023-01-25T07:35:37;101702.06;;;-0.11;100.00
56671;BME280;42545;50.054;8.306;2023-01-25T07:38:04;101709.84;;;-0.11;100.00
56671;BME280;42545;50.054;8.306;2023-01-25T07:40:31;101704.66;;;-0.11;100.00
56671;BME280;42545;50.054;8.306;2023-01-25T07:42:57;101700.25;;;-0.12;100.00
56671;BME280;42545;50.054;8.306;2023-01-25T07:45:24;101695.84;;;-0.13;100.00
56671;BME280;42545;50.054;8.306;2023-01-25T07:47:55;101699.09;;;-0.16;100.00
56671;BME280;42545;50.054;8.306;2023-01-25T07:50:24;101695.97;;;-0.12;100.00
56671;BME280;42545;50.054;8.306;2023-01-25T07:52:51;101694.28;;;-0.11;100.00
56671;BME280;42545;50.054;8.306;2023-01-25T07:55:18;101696.63;;;-0.14;100.00
56671;BME280;42545;50.054;8.306;2023-01-25T07:57:44;101692.22;;;-0.15;100.00
56671;BME280;42545;50.054;8.306;2023-01-25T08:00:15;101692.22;;;-0.15;100.00
56671;BME280;42545;50.054;8.306;2023-01-25T08:02:50;101699.84;;;-0.17;100.00
56671;BME280;42545;50.054;8.306;2023-01-25T08:05:17;101694.53;;;-0.18;100.00
56671;BME280;42545;50.054;8.306;2023-01-25T08:07:46;101698.97;;;-0.17;100.00
56671;BME280;42545;50.054;8.306;2023-01-25T08:10:15;101702.31;;;-0.18;100.00
56671;BME280;42545;50.054;8.306;2023-01-25T08:12:44;101701.41;;;-0.19;100.00
56671;BME280;42545;50.054;8.306;2023-01-25T08:15:12;101703.13;;;-0.20;100.00
56671;BME280;42545;50.054;8.306;2023-01-25T08:17:41;101703.25;;;-0.18;100.00
56671;BME280;42545;50.054;8.306;2023-01-25T08:20:09;101694.53;;;-0.18;100.00
56671;BME280;42545;50.054;8.306;2023-01-25T08:22:43;101693.63;;;-0.19;100.00
56671;BME280;42545;50.054;8.306;2023-01-25T08:25:13;101690.13;;;-0.20;100.00
56671;BME280;42545;50.054;8.306;2023-01-25T08:27:39;101695.47;;;-0.18;100.00
56671;BME280;42545;50.054;8.306;2023-01-25T08:30:09;101695.31;;;-0.20;100.00
56671;BME280;42545;50.054;8.306;2023-01-25T08:32:36;101693.50;;;-0.21;100.00
56671;BME280;42545;50.054;8.306;2023-01-25T08:35:04;101691.84;;;-0.20;100.00
56671;BME280;42545;50.054;8.306;2023-01-25T08:37:31;101687.41;;;-0.21;100.00
56671;BME280;42545;50.054;8.306;2023-01-25T08:39:58;101688.16;;;-0.22;100.00
56671;BME280;42545;50.054;8.306;2023-01-25T08:42:26;101684.69;;;-0.23;100.00
56671;BME280;42545;50.054;8.306;2023-01-25T08:44:56;101685.34;;;-0.25;100.00
56671;BME280;42545;50.054;8.306;2023-01-25T08:47:22;101672.09;;;-0.28;100.00
56671;BME280;42545;50.054;8.306;2023-01-25T08:49:49;101683.91;;;-0.22;100.00
56671;BME280;42545;50.054;8.306;2023-01-25T08:52:16;101670.81;;;-0.23;100.00
56671;BME280;42545;50.054;8.306;2023-01-25T08:54:44;101663.66;;;-0.26;100.00
56671;BME280;42545;50.054;8.306;2023-01-25T08:57:13;101678.97;;;-0.18;100.00
56671;BME280;42545;50.054;8.306;2023-01-25T08:59:41;101675.59;;;-0.17;100.00
56671;BME280;42545;50.054;8.306;2023-01-25T09:02:10;101669.91;;;-0.24;100.00
56671;BME280;42545;50.054;8.306;2023-01-25T09:04:40;101670.28;;;-0.19;100.00
56671;BME280;42545;50.054;8.306;2023-01-25T09:07:08;101674.06;;;-0.15;100.00
56671;BME280;42545;50.054;8.306;2023-01-25T09:09:34;101675.47;;;-0.19;100.00
56671;BME280;42545;50.054;8.306;2023-01-25T09:12:01;101674.72;;;-0.18;100.00
56671;BME280;42545;50.054;8.306;2023-01-25T09:14:27;101664.19;;;-0.20;100.00
56671;BME280;42545;50.054;8.306;2023-01-25T09:16:55;101664.47;;;-0.16;100.00
56671;BME280;42545;50.054;8.306;2023-01-25T09:19:22;101664.47;;;-0.16;100.00
56671;BME280;42545;50.054;8.306;2023-01-25T09:21:50;101670.69;;;-0.14;100.00
56671;BME280;42545;50.054;8.306;2023-01-25T09:24:16;101654.72;;;-0.19;100.00
56671;BME280;42545;50.054;8.306;2023-01-25T09:26:43;101638.88;;;-0.22;100.00
56671;BME280;42545;50.054;8.306;2023-01-25T09:29:10;101654.19;;;-0.15;100.00
56671;BME280;42545;50.054;8.306;2023-01-25T09:31:38;101651.59;;;-0.15;100.00
56671;BME280;42545;50.054;8.306;2023-01-25T09:34:09;101651.59;;;-0.15;100.00
56671;BME280;42545;50.054;8.306;2023-01-25T09:36:38;101643.81;;;-0.15;100.00
56671;BME280;42545;50.054;8.306;2023-01-25T09:39:05;101649.13;;;-0.13;100.00
56671;BME280;42545;50.054;8.306;2023-01-25T09:41:46;101649.00;;;-0.15;100.00
56671;BME280;42545;50.054;8.306;2023-01-25T09:44:29;101646.31;;;-0.16;100.00
56671;BME280;42545;50.054;8.306;2023-01-25T09:47:17;101654.19;;;-0.15;100.00
56671;BME280;42545;50.054;8.306;2023-01-25T09:50:12;101648.91;;;-0.16;100.00
56671;BME280;42545;50.054;8.306;2023-01-25T09:52:54;101657.59;;;-0.16;100.00
56671;BME280;42545;50.054;8.306;2023-01-25T09:55:28;101648.25;;;-0.14;100.00
56671;BME280;42545;50.054;8.306;2023-01-25T09:58:00;101658.75;;;-0.12;100.00
56671;BME280;42545;50.054;8.306;2023-01-25T10:00:30;101657.06;;;-0.12;100.00
56671;BME280;42545;50.054;8.306;2023-01-25T10:03:01;101653.28;;;-0.15;100.00
56671;BME280;42545;50.054;8.306;2023-01-25T10:05:33;101654.34;;;-0.13;100.00
56671;BME280;42545;50.054;8.306;2023-01-25T10:08:07;101649.94;;;-0.14;100.00
56671;BME280;42545;50.054;8.306;2023-01-25T10:10:39;101644.75;;;-0.14;100.00
56671;BME280;42545;50.054;8.306;2023-01-25T10:13:08;101635.94;;;-0.16;100.00
56671;BME280;42545;50.054;8.306;2023-01-25T10:15:39;101636.84;;;-0.16;100.00
56671;BME280;42545;50.054;8.306;2023-01-25T10:18:17;101637.72;;;-0.15;100.00
56671;BME280;42545;50.054;8.306;2023-01-25T10:20:50;101642.03;;;-0.16;100.00
56671;BME280;42545;50.054;8.306;2023-01-25T10:23:31;101629.94;;;-0.15;100.00
56671;BME280;42545;50.054;8.306;2023-01-25T10:26:06;101630.84;;;-0.15;100.00
56671;BME280;42545;50.054;8.306;2023-01-25T10:28:41;101623.84;;;-0.16;100.00
56671;BME280;42545;50.054;8.306;2023-01-25T10:31:16;101631.88;;;-0.13;100.00
56671;BME280;42545;50.054;8.306;2023-01-25T10:33:45;101621.50;;;-0.13;100.00
56671;BME280;42545;50.054;8.306;2023-01-25T10:36:15;101603.09;;;-0.16;100.00
56671;BME280;42545;50.054;8.306;2023-01-25T10:38:44;101607.50;;;-0.15;100.00
56671;BME280;42545;50.054;8.306;2023-01-25T10:41:16;101604.00;;;-0.15;100.00
56671;BME280;42545;50.054;8.306;2023-01-25T10:43:45;101600.66;;;-0.14;100.00
56671;BME280;42545;50.054;8.306;2023-01-25T10:46:19;101596.22;;;-0.15;100.00
56671;BME280;42545;50.054;8.306;2023-01-25T10:48:49;101589.34;;;-0.15;100.00
56671;BME280;42545;50.054;8.306;2023-01-25T10:51:30;101583.13;;;-0.17;100.00
56671;BME280;42545;50.054;8.306;2023-01-25T10:53:58;101584.41;;;-0.12;100.00
56671;BME280;42545;50.054;8.306;2023-01-25T10:56:27;101576.75;;;-0.10;100.00
56671;BME280;42545;50.054;8.306;2023-01-25T10:59:06;101567.16;;;-0.11;100.00
56671;BME280;42545;50.054;8.306;2023-01-25T11:01:35;101550.81;;;-0.21;100.00
56671;BME280;42545;50.054;8.306;2023-01-25T11:04:02;101566.13;;;-0.13;100.00
56671;BME280;42545;50.054;8.306;2023-01-25T11:06:47;101552.66;;;-0.20;100.00
56671;BME280;42545;50.054;8.306;2023-01-25T11:09:30;101559.91;;;-0.15;100.00
56671;BME280;42545;50.054;8.306;2023-01-25T11:11:58;101545.00;;;-0.18;100.00
56671;BME280;42545;50.054;8.306;2023-01-25T11:14:27;101545.63;;;-0.10;100.00
56671;BME280;42545;50.054;8.306;2023-01-25T11:16:55;101543.16;;;-0.09;100.00
56671;BME280;42545;50.054;8.306;2023-01-25T11:19:26;101539.00;;;-0.07;100.00
56671;BME280;42545;50.054;8.306;2023-01-25T11:21:56;101533.56;;;-0.10;100.00
56671;BME280;42545;50.054;8.306;2023-01-25T11:24:24;101535.38;;;-0.09;100.00
56671;BME280;42545;50.054;8.306;2023-01-25T11:27:11;101530.97;;;-0.10;100.00
56671;BME280;42545;50.054;8.306;2023-01-25T11:29:38;101536.94;;;-0.11;100.00
56671;BME280;42545;50.054;8.306;2023-01-25T11:32:15;101528.38;;;-0.10;100.00
56671;BME280;42545;50.054;8.306;2023-01-25T11:34:49;101524.19;;;-0.08;100.00
56671;BME280;42545;50.054;8.306;2023-01-25T11:37:21;101521.59;;;-0.08;100.00
56671;BME280;42545;50.054;8.306;2023-01-25T11:40:05;101519.00;;;-0.08;100.00
56671;BME280;42545;50.054;8.306;2023-01-25T11:42:42;101516.28;;;-0.09;100.00
56671;BME280;42545;50.054;8.306;2023-01-25T11:45:38;101501.38;;;-0.12;100.00
56671;BME280;42545;50.054;8.306;2023-01-25T11:48:23;101498.94;;;-0.10;100.00
56671;BME280;42545;50.054;8.306;2023-01-25T11:51:01;101468.47;;;-0.23;100.00
56671;BME280;42545;50.054;8.306;2023-01-25T11:53:45;101489.31;;;-0.11;100.00
56671;BME280;42545;50.054;8.306;2023-01-25T11:56:29;101471.56;;;-0.17;100.00
56671;BME280;42545;50.054;8.306;2023-01-25T11:59:11;101481.78;;;-0.08;100.00
56671;BME280;42545;50.054;8.306;2023-01-25T12:02:03;101474.13;;;-0.07;100.00
56671;BME280;42545;50.054;8.306;2023-01-25T12:04:43;101469.72;;;-0.08;100.00
56671;BME280;42545;50.054;8.306;2023-01-25T12:07:21;101465.19;;;-0.10;100.00
56671;BME280;42545;50.054;8.306;2023-01-25T12:10:03;101458.97;;;-0.12;100.00
56671;BME280;42545;50.054;8.306;2023-01-25T12:12:46;101454.34;;;-0.16;100.00
56671;BME280;42545;50.054;8.306;2023-01-25T12:15:26;101454.03;;;-0.09;100.00
56671;BME280;42545;50.054;8.306;2023-01-25T12:18:35;101446.38;;;-0.08;100.00
56671;BME280;42545;50.054;8.306;2023-01-25T12:21:05;101444.69;;;-0.07;100.00
56671;BME280;42545;50.054;8.306;2023-01-25T12:23:47;101434.97;;;-0.10;100.00
56671;BME280;42545;50.054;8.306;2023-01-25T12:26:25;101424.31;;;-0.13;100.00
56671;BME280;42545;50.054;8.306;2023-01-25T12:29:00;101415.91;;;-0.10;100.00
56671;BME280;42545;50.054;8.306;2023-01-25T12:31:35;101406.28;;;-0.11;100.00
56671;BME280;42545;50.054;8.306;2023-01-25T12:34:09;101410.03;;;-0.08;100.00
56671;BME280;42545;50.054;8.306;2023-01-25T12:36:39;101405.66;;;-0.09;100.00
56671;BME280;42545;50.054;8.306;2023-01-25T12:39:11;101407.88;;;-0.13;100.00
56671;BME280;42545;50.054;8.306;2023-01-25T12:41:43;101398.16;;;-0.16;100.00
56671;BME280;42545;50.054;8.306;2023-01-25T12:44:16;101385.06;;;-0.17;100.00
56671;BME280;42545;50.054;8.306;2023-01-25T12:46:50;101392.06;;;-0.16;100.00
56671;BME280;42545;50.054;8.306;2023-01-25T12:49:25;101392.72;;;-0.19;100.00
56671;BME280;42545;50.054;8.306;2023-01-25T12:52:00;101389.34;;;-0.18;100.00
56671;BME280;42545;50.054;8.306;2023-01-25T12:54:28;101378.97;;;-0.18;100.00
56671;BME280;42545;50.054;8.306;2023-01-25T12:57:06;101380.91;;;-0.15;100.00
56671;BME280;42545;50.054;8.306;2023-01-25T12:59:41;101369.84;;;-0.13;100.00
56671;BME280;42545;50.054;8.306;2023-01-25T13:02:36;101362.19;;;-0.11;100.00
56671;BME280;42545;50.054;8.306;2023-01-25T13:05:15;101355.34;;;-0.11;100.00
56671;BME280;42545;50.054;8.306;2023-01-25T13:07:50;101358.28;;;-0.06;100.00
56671;BME280;42545;50.054;8.306;2023-01-25T13:10:23;101354.41;;;-0.11;100.00
56671;BME280;42545;50.054;8.306;2023-01-25T13:12:54;101349.09;;;-0.13;100.00
56671;BME280;42545;50.054;8.306;2023-01-25T13:15:36;101341.31;;;-0.13;100.00